Covington, IN (47932)

3:58 PM EST on February 10, 2016 (GMT -0500)
WX9C | | Change Station
CLOSE
Current Station
Personal Weather Station
Location: Covington, IN
Elevation: 617 ft
Nearby Weather Stations

Elev 617 ft 40.13 °N, 87.38 °W | Updated 13 seconds ago

Mostly Cloudy
Mostly Cloudy
18.3 °F
Feels Like 11 °F
N
5.4
Wind Variable Wind from West
Gusts 9.2 mph

Today
High -- | Low -- °F
--% Chance of Precip.
Yesterday
High -- | Low -- °F
Precip. -- in
Pressure 30.03 in
Visibility 10.0 miles
Clouds Scattered Clouds 2800 ft
Windchill 11 °F
Dew Point -1 °F
Humidity 41%
Rainfall 0.00 in
Snow Depth Not available.
7:49 AM 6:18 PM
Waxing Crescent, 7% visible
METAR KDNV 102035Z AUTO 28007KT 10SM SCT028 M09/M14 A3003 RMK AO2 T10901145
Pressure 30.03 in
Visibility 10.0 miles
Clouds Scattered Clouds 2800 ft
Windchill 11 °F
Dew Point -1 °F
Humidity 41%
Rainfall 0.00 in
Snow Depth Not available.
7:49 AM 6:18 PM
Waxing Crescent, 7% visible
METAR KDNV 102035Z AUTO 28007KT 10SM SCT028 M09/M14 A3003 RMK AO2 T10901145

10-Day Weather Forecast

Almanac

Astronomy

Feb. 10, 2016 Rise Set
Actual Time
Civil Twilight
Nautical Twilight
Astronomical Twilight
Moon
Length of Visible Light
Length of Day
Tomorrow will be .
, % of the Moon is Illuminated

Today's Extremes

State Highs State Lows

Community

WunderPhotos

Upload Photos

1,891,945 photos uploaded!

WunderBlog® & News

Nearby

Air Quality

  Air Quality AQ Index Pollutant
Not available.

Snow Depth

Station Depth Elevation

Earthquake Activity

City Distance Mag. Time & Date
Minimum magnitude displayed is 2.5.

Coastal Water Temperatures

Place Temperature

Stations

Nearby Weather Stations

Station Location Temp. Windchill Dew Point Humidity Wind Precip. Elev Updated Type
                   

Watches & Warnings

There are currently no watches in effect.